Карточка аэропорта UAKK

Внимание!
Информация на этой странице в стадии наполнения.
Если вы не увидели какой-то информации, или заметили неточность - пожалуйста сообщите нам!
Спасибо!
Команда RU-STAFF
Название аэропортаКараганда
Название аэропорта (англ.)Karaganda
Превышение1768 ft. (538.9 m.)
Координаты49°40.302', 73°20.118'
Высота перехода10000
Эшелон переходаby ATC
Коды ответчика0630-0637, 7220-7227
Зона ОрВДНур-Султан РПИ (UACN)
Данные METARUAKK 271200Z 06002MPS CAVOK M15/M17 Q1028 NOSIG RMK QFE723/0965
Проноз погоды (TAF)UAKK 271104Z 2712/2812 VRB02MPS 9999 SCT020 BKN100 TXM09/2809Z TNM25/2724Z BECMG 2715/2717 3100 BR BKN011 TEMPO 2715/2803 0400 FZFG VV002 BECMG 2804/2806 9999 NSW SCT020
NOTAMshow/hide NOTAM
AWOS   TABLE

Информация о ВПП

ВПП Длина ВПП (м.) Покрытие Курс ВПП Частота ILS
053601Железобетон50109.9
233601Железобетон230111.7

Диспетчерские позиции




Спутниковое изображение